createdAt,value
2018-10-19T00:00:21.914Z,99.99
2018-10-19T00:01:22.151Z,99.99
2018-10-19T00:02:23.443Z,99.99
2018-10-19T00:03:23.957Z,99.99
2018-10-19T00:04:25.308Z,99.99
2018-10-19T00:05:25.824Z,99.99
2018-10-19T00:06:26.898Z,99.99
2018-10-19T00:07:27.694Z,99.99
2018-10-19T00:08:28.491Z,99.99
2018-10-19T00:09:29.006Z,99.99
2018-10-19T00:10:29.525Z,99.99
2018-10-19T00:11:30.321Z,99.99
2018-10-19T00:12:31.120Z,99.99
2018-10-19T00:13:31.910Z,99.99
2018-10-19T00:14:32.703Z,99.99
2018-10-19T00:15:34.773Z,99.99
2018-10-19T00:16:34.565Z,99.99
2018-10-19T00:17:36.081Z,99.99
2018-10-19T00:18:37.592Z,99.99
2018-10-19T00:19:38.667Z,99.99
2018-10-19T00:20:40.460Z,99.99
2018-10-19T00:21:41.255Z,99.99
2018-10-19T00:22:42.227Z,99.99
2018-10-19T00:23:42.855Z,99.99
2018-10-19T00:24:43.650Z,99.99
2018-10-19T00:25:43.999Z,99.99
2018-10-19T00:26:45.340Z,99.99
2018-10-19T00:27:45.136Z,99.99
2018-10-19T00:28:45.929Z,99.99
2018-10-19T00:29:47.761Z,99.99
2018-10-19T00:30:48.393Z,99.99
2018-10-19T00:31:48.741Z,99.99
2018-10-19T00:32:49.570Z,99.99
2018-10-19T00:33:50.195Z,99.99
2018-10-19T00:34:50.435Z,99.99
2018-10-19T00:35:51.669Z,99.99
2018-10-19T00:36:52.555Z,99.99
2018-10-19T00:37:52.837Z,99.99
2018-10-19T00:38:53.548Z,99.99
2018-10-19T00:39:54.270Z,99.99
2018-10-19T00:40:54.819Z,99.99
2018-10-19T00:41:56.253Z,99.99
2018-10-19T00:42:56.778Z,99.99
2018-10-19T00:43:58.294Z,99.99
2018-10-19T00:44:59.719Z,99.99
2018-10-19T00:45:59.684Z,99.99
2018-10-19T00:47:00.935Z,99.99
2018-10-19T00:48:01.224Z,99.99
2018-10-19T00:49:01.573Z,99.99
2018-10-19T00:50:02.653Z,99.99
2018-10-19T00:51:03.979Z,99.99
2018-10-19T00:52:04.643Z,99.99
2018-10-19T00:53:05.962Z,99.99
2018-10-19T00:54:06.284Z,99.99
2018-10-19T00:55:07.068Z,99.99
2018-10-19T00:56:07.579Z,99.99
2018-10-19T00:57:09.789Z,99.99
2018-10-19T00:58:10.420Z,99.99
2018-10-19T00:59:12.265Z,99.99
2018-10-19T01:00:12.025Z,99.99
2018-10-19T01:01:13.100Z,99.99
2018-10-19T01:02:13.890Z,99.99
2018-10-19T01:03:15.614Z,99.99
2018-10-19T01:04:16.459Z,99.99
2018-10-19T01:05:17.075Z,99.99
2018-10-19T01:06:18.050Z,99.99
2018-10-19T01:07:18.676Z,99.99
2018-10-19T01:08:19.187Z,99.99
2018-10-19T01:09:19.811Z,99.99
2018-10-19T01:10:20.887Z,99.99
2018-10-19T01:11:21.956Z,99.99
2018-10-19T01:12:22.752Z,99.99
2018-10-19T01:13:23.747Z,99.99
2018-10-19T01:14:24.542Z,99.99
2018-10-19T01:15:25.058Z,99.99
2018-10-19T01:16:26.298Z,99.99
2018-10-19T01:17:27.135Z,99.99
2018-10-19T01:18:27.649Z,99.99
2018-10-19T01:19:29.277Z,99.99
2018-10-19T01:20:29.347Z,99.99
2018-10-19T01:21:30.708Z,99.99
2018-10-19T01:22:30.787Z,99.99
2018-10-19T01:23:31.992Z,99.99
2018-10-19T01:24:33.061Z,99.99
2018-10-19T01:25:33.974Z,99.99
2018-10-19T01:26:34.490Z,99.99
2018-10-19T01:27:35.124Z,99.99
2018-10-19T01:28:35.747Z,99.99
2018-10-19T01:29:36.863Z,99.99
2018-10-19T01:30:37.658Z,99.99
2018-10-19T01:31:38.453Z,99.99
2018-10-19T01:32:39.522Z,99.99
2018-10-19T01:33:39.631Z,99.99
2018-10-19T01:34:40.419Z,99.99
2018-10-19T01:35:40.493Z,99.99
2018-10-19T01:36:41.151Z,99.99
2018-10-19T01:37:41.942Z,99.99
2018-10-19T01:38:43.290Z,99.99
2018-10-19T01:39:44.085Z,99.99
2018-10-19T01:40:44.600Z,99.99
2018-10-19T01:41:45.113Z,99.99
2018-10-19T01:42:46.183Z,99.99
2018-10-19T01:43:47.149Z,99.99
2018-10-19T01:44:48.502Z,99.99
2018-10-19T01:45:49.304Z,99.99
2018-10-19T01:46:50.541Z,99.99
2018-10-19T01:47:51.890Z,99.99
2018-10-19T01:48:52.241Z,99.99
2018-10-19T01:49:52.483Z,99.99
2018-10-19T01:50:53.352Z,99.99
2018-10-19T01:51:54.444Z,99.99
2018-10-19T01:52:55.544Z,99.99
2018-10-19T01:53:56.502Z,99.99
2018-10-19T01:54:57.309Z,99.99
2018-10-19T01:55:57.536Z,99.99
2018-10-19T01:56:59.634Z,99.99
2018-10-19T01:58:00.759Z,99.99
2018-10-19T01:59:01.708Z,99.99
2018-10-19T02:00:02.356Z,99.99
2018-10-19T02:01:02.439Z,99.99
2018-10-19T02:02:03.509Z,99.99
2018-10-19T02:03:03.670Z,99.99
2018-10-19T02:04:03.802Z,99.99
2018-10-19T02:05:04.635Z,99.99
2018-10-19T02:06:05.633Z,99.99
2018-10-19T02:07:06.706Z,99.99
2018-10-19T02:08:07.050Z,99.99
2018-10-19T02:09:09.045Z,99.99
2018-10-19T02:10:09.336Z,99.99
2018-10-19T02:11:10.887Z,99.99
2018-10-19T02:12:11.223Z,99.99
2018-10-19T02:13:11.308Z,99.99
2018-10-19T02:14:12.279Z,99.99
2018-10-19T02:15:13.566Z,99.99
2018-10-19T02:16:13.760Z,99.99
2018-10-19T02:17:16.045Z,99.99
2018-10-19T02:18:15.948Z,99.99
2018-10-19T02:19:17.017Z,99.99
2018-10-19T02:20:18.088Z,99.99
2018-10-19T02:21:18.439Z,99.99
2018-10-19T02:22:19.238Z,99.99
2018-10-19T02:23:19.873Z,99.99
2018-10-19T02:24:21.400Z,99.99
2018-10-19T02:25:21.916Z,99.99
2018-10-19T02:26:23.269Z,99.99
2018-10-19T02:27:23.897Z,99.99
2018-10-19T02:28:24.409Z,99.99
2018-10-19T02:29:25.480Z,99.99
2018-10-19T02:30:26.552Z,99.99
2018-10-19T02:31:27.521Z,99.99
2018-10-19T02:32:28.316Z,99.99
2018-10-19T02:33:29.220Z,99.99
2018-10-19T02:34:30.856Z,99.99
2018-10-19T02:35:31.647Z,99.99
2018-10-19T02:36:33.040Z,99.99
2018-10-19T02:37:33.665Z,99.99
2018-10-19T02:38:34.735Z,99.99
2018-10-19T02:39:35.527Z,99.99
2018-10-19T02:40:36.168Z,99.99
2018-10-19T02:41:37.512Z,99.99
2018-10-19T02:42:38.025Z,99.99
2018-10-19T02:43:39.375Z,99.99
2018-10-19T02:44:40.019Z,99.99
2018-10-19T02:45:40.101Z,99.99
2018-10-19T02:46:40.897Z,99.99
2018-10-19T02:47:41.413Z,99.99
2018-10-19T02:48:42.202Z,99.99
2018-10-19T02:49:42.998Z,99.99
2018-10-19T02:50:43.355Z,99.99
2018-10-19T02:51:44.422Z,99.99
2018-10-19T02:52:45.220Z,99.99
2018-10-19T02:53:46.733Z,99.99
2018-10-19T02:54:48.262Z,99.99
2018-10-19T02:55:49.606Z,99.99
2018-10-19T02:56:50.120Z,99.99
2018-10-19T02:57:51.194Z,99.99
2018-10-19T02:58:51.721Z,99.99
2018-10-19T02:59:52.390Z,99.99
2018-10-19T03:00:53.748Z,99.99
2018-10-19T03:01:53.977Z,99.99
2018-10-19T03:02:55.673Z,99.99
2018-10-19T03:03:55.795Z,99.99
2018-10-19T03:04:57.454Z,99.99
2018-10-19T03:05:57.336Z,99.99
2018-10-19T03:06:58.126Z,99.99
2018-10-19T03:07:59.473Z,99.99
2018-10-19T03:08:59.997Z,99.99
2018-10-19T03:10:00.551Z,99.99
2018-10-19T03:11:02.018Z,99.99
2018-10-19T03:12:02.713Z,99.99
2018-10-19T03:13:04.068Z,99.99
2018-10-19T03:14:04.699Z,99.99
2018-10-19T03:15:05.992Z,99.99
2018-10-19T03:16:06.407Z,99.99
2018-10-19T03:17:07.405Z,99.99
2018-10-19T03:18:08.449Z,99.99
2018-10-19T03:19:08.800Z,99.99
2018-10-19T03:20:09.706Z,99.99
2018-10-19T03:21:09.960Z,99.99
2018-10-19T03:22:11.115Z,99.99
2018-10-19T03:23:12.930Z,99.99
2018-10-19T03:24:14.016Z,99.99
2018-10-19T03:25:15.100Z,99.99
2018-10-19T03:26:15.729Z,99.99
2018-10-19T03:27:17.039Z,99.99
2018-10-19T03:28:17.062Z,99.99
2018-10-19T03:29:19.041Z,99.99
2018-10-19T03:30:19.256Z,99.99
2018-10-19T03:31:20.734Z,99.99
2018-10-19T03:32:21.396Z,99.99
2018-10-19T03:33:22.484Z,99.99
2018-10-19T03:34:22.835Z,99.99
2018-10-19T03:35:23.482Z,99.99
2018-10-19T03:36:24.557Z,99.99
2018-10-19T03:37:25.627Z,99.99
2018-10-19T03:38:26.255Z,99.99
2018-10-19T03:39:27.051Z,99.99
2018-10-19T03:40:28.128Z,99.99
2018-10-19T03:41:29.482Z,99.99
2018-10-19T03:42:29.830Z,99.99
2018-10-19T03:43:30.648Z,99.99
2018-10-19T03:44:31.549Z,99.99
2018-10-19T03:45:32.536Z,99.99
2018-10-19T03:46:33.327Z,99.99
2018-10-19T03:47:34.675Z,99.99
2018-10-19T03:48:35.584Z,99.99
2018-10-19T03:49:36.420Z,99.99
2018-10-19T03:50:36.773Z,99.99
2018-10-19T03:51:37.847Z,99.99
2018-10-19T03:52:39.199Z,99.99
2018-10-19T03:53:39.992Z,99.99
2018-10-19T03:54:41.061Z,99.99
2018-10-19T03:55:41.439Z,99.99
2018-10-19T03:56:42.235Z,99.99
2018-10-19T03:57:43.316Z,99.99
2018-10-19T03:58:44.662Z,99.99
2018-10-19T03:59:45.453Z,99.99
2018-10-19T04:00:46.088Z,99.99
2018-10-19T04:01:46.876Z,99.99
2018-10-19T04:02:47.952Z,99.99
2018-10-19T04:03:48.752Z,99.99
2018-10-19T04:04:49.265Z,99.99
2018-10-19T04:05:50.822Z,99.99
2018-10-19T04:06:51.729Z,99.99
2018-10-19T04:07:51.798Z,99.99
2018-10-19T04:08:53.657Z,99.99
2018-10-19T04:09:55.054Z,99.99
2018-10-19T04:10:55.887Z,99.99
2018-10-19T04:11:56.713Z,99.99
2018-10-19T04:12:57.059Z,99.99
2018-10-19T04:13:57.577Z,99.99
2018-10-19T04:14:59.379Z,99.99
2018-10-19T04:16:00.049Z,99.99
2018-10-19T04:17:01.800Z,99.99
2018-10-19T04:18:03.005Z,99.99
2018-10-19T04:19:03.524Z,99.99
2018-10-19T04:20:05.150Z,99.99
2018-10-19T04:21:05.672Z,99.99
2018-10-19T04:22:06.071Z,99.99
2018-10-19T04:23:08.020Z,99.99
2018-10-19T04:24:08.710Z,99.99
2018-10-19T04:25:09.782Z,99.99
2018-10-19T04:26:10.060Z,99.99
2018-10-19T04:27:11.274Z,99.99
2018-10-19T04:28:12.170Z,99.99
2018-10-19T04:29:13.484Z,99.99
2018-10-19T04:30:13.291Z,99.99
2018-10-19T04:31:14.638Z,99.99
2018-10-19T04:32:14.989Z,99.99
2018-10-19T04:33:15.543Z,99.99
2018-10-19T04:34:16.361Z,99.99
2018-10-19T04:35:17.921Z,99.99
2018-10-19T04:36:18.273Z,99.99
2018-10-19T04:37:19.377Z,99.99
2018-10-19T04:38:19.447Z,99.99
2018-10-19T04:39:20.799Z,99.99
2018-10-19T04:40:21.869Z,99.99
2018-10-19T04:41:22.606Z,99.99
2018-10-19T04:42:23.870Z,99.99
2018-10-19T04:43:24.837Z,99.99
2018-10-19T04:44:25.625Z,99.99
2018-10-19T04:45:26.417Z,99.99
2018-10-19T04:46:27.945Z,99.99
2018-10-19T04:47:28.805Z,99.99
2018-10-19T04:48:30.227Z,99.99
2018-10-19T04:49:30.857Z,99.99
2018-10-19T04:50:31.638Z,99.99
2018-10-19T04:51:33.266Z,99.99
2018-10-19T04:52:34.347Z,99.99
2018-10-19T04:53:36.204Z,99.99
2018-10-19T04:54:36.570Z,99.99
2018-10-19T04:55:37.357Z,99.99
2018-10-19T04:56:22.960Z,99.99
2018-10-19T04:57:23.419Z,99.99
2018-10-19T04:58:23.776Z,99.99
2018-10-19T04:59:24.852Z,99.99
2018-10-19T05:00:26.227Z,99.99
2018-10-19T05:01:27.021Z,99.99
2018-10-19T05:02:28.157Z,99.99
2018-10-19T05:03:28.607Z,99.99
2018-10-19T05:04:30.078Z,99.99
2018-10-19T05:05:30.775Z,99.99
2018-10-19T05:06:31.863Z,99.99
2018-10-19T05:07:31.971Z,99.99
2018-10-19T05:08:33.600Z,99.99
2018-10-19T05:09:33.392Z,99.99
2018-10-19T05:10:34.312Z,99.99
2018-10-19T05:11:35.382Z,99.99
2018-10-19T05:12:37.588Z,99.99
2018-10-19T05:13:38.245Z,99.99
2018-10-19T05:14:39.598Z,99.99
2018-10-19T05:15:39.943Z,99.99
2018-10-19T05:16:40.460Z,99.99
2018-10-19T05:17:41.145Z,99.99
2018-10-19T05:18:42.490Z,99.99
2018-10-19T05:19:43.559Z,99.99
2018-10-19T05:20:44.352Z,99.99
2018-10-19T05:21:45.427Z,99.99
2018-10-19T05:22:46.222Z,99.99
2018-10-19T05:23:47.294Z,99.99
2018-10-19T05:24:47.890Z,99.99
2018-10-19T05:25:48.685Z,99.99
2018-10-19T05:26:49.764Z,99.99
2018-10-19T05:27:50.872Z,99.99
2018-10-19T05:28:51.785Z,99.99
2018-10-19T05:29:52.270Z,99.99
2018-10-19T05:30:52.624Z,99.99
2018-10-19T05:31:53.425Z,99.99
2018-10-19T05:32:54.324Z,99.99
2018-10-19T05:33:54.936Z,99.99
2018-10-19T05:34:56.120Z,99.99
2018-10-19T05:35:56.240Z,99.99
2018-10-19T05:36:56.870Z,99.99
2018-10-19T05:37:58.396Z,99.99
2018-10-19T05:38:58.922Z,99.99
2018-10-19T05:40:00.335Z,99.99
2018-10-19T05:41:01.965Z,99.99
2018-10-19T05:42:02.751Z,99.99
2018-10-19T05:43:03.117Z,99.99
2018-10-19T05:44:04.384Z,99.99
2018-10-19T05:45:04.785Z,99.99
2018-10-19T05:46:05.861Z,99.99
2018-10-19T05:47:07.134Z,99.99
2018-10-19T05:48:07.169Z,99.99
2018-10-19T05:49:07.688Z,99.99
2018-10-19T05:50:09.886Z,99.99
2018-10-19T05:51:09.552Z,99.99
2018-10-19T05:52:11.152Z,99.99
2018-10-19T05:53:11.493Z,99.99
2018-10-19T05:54:12.328Z,99.99
2018-10-19T05:55:13.679Z,99.99
2018-10-19T05:56:15.105Z,99.99
2018-10-19T05:57:15.214Z,99.99
2018-10-19T05:58:16.185Z,99.99
2018-10-19T05:59:16.861Z,99.99
2018-10-19T06:00:17.351Z,99.99
2018-10-19T06:01:18.164Z,99.99
2018-10-19T06:02:20.357Z,99.99
2018-10-19T06:03:20.075Z,99.99
2018-10-19T06:04:20.980Z,99.99
2018-10-19T06:05:22.041Z,99.99
2018-10-19T06:06:23.007Z,99.99
2018-10-19T06:07:25.319Z,99.99
2018-10-19T06:08:24.507Z,99.99
2018-10-19T06:09:25.579Z,99.99
2018-10-19T06:10:26.096Z,99.99
2018-10-19T06:11:26.614Z,99.99
2018-10-19T06:12:27.410Z,99.99
2018-10-19T06:13:29.194Z,99.99
2018-10-19T06:14:29.993Z,99.99
2018-10-19T06:15:31.223Z,99.99
2018-10-19T06:16:32.307Z,99.99
2018-10-19T06:17:33.626Z,99.99
2018-10-19T06:18:34.358Z,99.99
2018-10-19T06:19:35.433Z,99.99
2018-10-19T06:20:36.503Z,99.99
2018-10-19T06:21:37.311Z,99.99
2018-10-19T06:22:38.114Z,99.99
2018-10-19T06:23:38.628Z,99.99
2018-10-19T06:24:39.427Z,99.99
2018-10-19T06:25:40.942Z,99.99
2018-10-19T06:26:41.963Z,99.99
2018-10-19T06:27:42.205Z,99.99
2018-10-19T06:28:43.315Z,99.99
2018-10-19T06:29:43.945Z,99.99
2018-10-19T06:30:44.741Z,99.99
2018-10-19T06:31:45.815Z,99.99
2018-10-19T06:32:46.447Z,99.99
2018-10-19T06:33:47.024Z,99.99
2018-10-19T06:34:48.065Z,99.99
2018-10-19T06:35:48.589Z,99.99
2018-10-19T06:36:49.664Z,99.99
2018-10-19T06:37:51.017Z,99.99
2018-10-19T06:38:51.432Z,99.99
2018-10-19T06:39:52.001Z,99.99
2018-10-19T06:40:54.289Z,99.99
2018-10-19T06:41:54.347Z,99.99
2018-10-19T06:42:55.418Z,99.99
2018-10-19T06:43:56.540Z,99.99
2018-10-19T06:44:57.061Z,99.99
2018-10-19T06:45:58.303Z,99.99
2018-10-19T06:46:59.516Z,99.99
2018-10-19T06:47:59.634Z,99.99
2018-10-19T06:49:00.979Z,99.99
2018-10-19T06:50:02.086Z,99.99
2018-10-19T06:51:02.821Z,99.99
2018-10-19T06:52:03.740Z,99.99
2018-10-19T06:53:04.842Z,99.99
2018-10-19T06:54:04.606Z,99.99
2018-10-19T06:55:05.967Z,99.99
2018-10-19T06:56:06.472Z,99.99
2018-10-19T06:57:07.646Z,99.98
2018-10-19T06:58:08.169Z,99.41
2018-10-19T06:59:11.045Z,99.69
2018-10-19T07:00:11.508Z,99.41
2018-10-19T07:01:12.595Z,99.32
2018-10-19T07:02:13.936Z,98.51
2018-10-19T07:03:14.402Z,97.46
2018-10-19T07:04:14.920Z,96.75
2018-10-19T07:05:16.523Z,96.17
2018-10-19T07:06:16.848Z,94.37
2018-10-19T07:07:17.167Z,92.5
2018-10-19T07:08:18.712Z,92.03
2018-10-19T07:09:19.188Z,91.83
2018-10-19T07:10:19.988Z,92.03
2018-10-19T07:11:21.512Z,91.74
2018-10-19T07:12:23.037Z,91.27
2018-10-19T07:13:23.558Z,92.69
2018-10-19T07:14:24.369Z,92.79
2018-10-19T07:15:24.893Z,93.65
2018-10-19T07:16:25.695Z,93.32
2018-10-19T07:17:27.637Z,93.41
2018-10-19T07:18:27.719Z,93.41
2018-10-19T07:19:28.192Z,93.88
2018-10-19T07:20:29.274Z,93.88
2018-10-19T07:21:30.472Z,93.7
2018-10-19T07:22:30.297Z,93.32
2018-10-19T07:23:32.098Z,93.22
2018-10-19T07:24:32.619Z,92.93
2018-10-19T07:25:34.142Z,93.12
2018-10-19T07:26:34.497Z,93.41
2018-10-19T07:27:35.927Z,94.27
2018-10-19T07:28:36.284Z,94.84
2018-10-19T07:29:36.952Z,94.56
2018-10-19T07:30:36.975Z,94.27
2018-10-19T07:31:38.050Z,94.27
2018-10-19T07:32:39.583Z,94.17
2018-10-19T07:33:40.661Z,95.03
2018-10-19T07:34:41.297Z,94.46
2018-10-19T07:35:42.098Z,95.22
2018-10-19T07:36:42.622Z,94.65
2018-10-19T07:37:43.698Z,94.93
2018-10-19T07:38:44.053Z,95.22
2018-10-19T07:39:44.616Z,95.41
2018-10-19T07:40:45.668Z,97.13
2018-10-19T07:41:46.668Z,98.36
2018-10-19T07:42:48.459Z,98.75
2018-10-19T07:43:48.389Z,99.04
2018-10-19T07:44:49.913Z,99.6
2018-10-19T07:45:50.775Z,99.32
2018-10-19T07:46:51.903Z,99.22
2018-10-19T07:47:54.771Z,99.51
2018-10-19T07:48:54.618Z,99.99
2018-10-19T07:49:56.252Z,99.99
2018-10-19T07:50:58.016Z,99.99
2018-10-19T07:51:58.369Z,99.22
2018-10-19T07:52:59.556Z,99.27
2018-10-19T07:53:59.889Z,99.56
2018-10-19T07:55:00.548Z,98.42
2018-10-19T07:56:02.405Z,97.56
2018-10-19T07:57:02.968Z,97.56
2018-10-19T07:58:04.328Z,96.51
2018-10-19T07:59:05.623Z,95.65
2018-10-19T08:00:06.495Z,95.84
2018-10-19T08:01:07.719Z,95.22
2018-10-19T08:02:09.600Z,94.74
2018-10-19T08:03:09.658Z,94.74
2018-10-19T08:04:10.182Z,94.12
2018-10-19T08:05:11.254Z,94.79
2018-10-19T08:06:12.237Z,93.65
2018-10-19T08:07:13.037Z,95.46
2018-10-19T08:08:14.379Z,94.51
2018-10-19T08:09:15.073Z,94.51
2018-10-19T08:10:16.048Z,94.31
2018-10-19T08:11:18.758Z,93.46
2018-10-19T08:12:18.439Z,94.22
2018-10-19T08:13:18.282Z,94.31
2018-10-19T08:14:20.396Z,93.79
2018-10-19T08:15:20.595Z,94.65
2018-10-19T08:16:21.120Z,94.46
2018-10-19T08:17:22.199Z,94.65
2018-10-19T08:18:22.443Z,94.22
2018-10-19T08:19:23.524Z,93.51
2018-10-19T08:20:23.541Z,94.22
2018-10-19T08:21:24.625Z,94.27
2018-10-19T08:22:25.424Z,94.93
2018-10-19T08:23:25.945Z,95.41
2018-10-19T08:24:26.746Z,95.12
2018-10-19T08:25:29.902Z,93.88
2018-10-19T08:26:28.780Z,93.31
2018-10-19T08:27:30.109Z,93.65
2018-10-19T08:28:30.407Z,93.46
2018-10-19T08:29:30.490Z,92.31
2018-10-19T08:30:31.466Z,91.4
2018-10-19T08:31:32.991Z,91.97
2018-10-19T08:32:34.347Z,91.11
2018-10-19T08:33:35.155Z,91.59
2018-10-19T08:34:36.510Z,91.11
2018-10-19T08:35:37.589Z,90.92
2018-10-19T08:36:38.393Z,90.83
2018-10-19T08:37:39.368Z,90.64
2018-10-19T08:38:39.353Z,90.3
2018-10-19T08:39:40.213Z,92.02
2018-10-19T08:40:41.751Z,92.55
2018-10-19T08:41:42.847Z,92.45
2018-10-19T08:42:42.422Z,91.45
2018-10-19T08:43:42.946Z,91.06
2018-10-19T08:44:43.749Z,90.49
2018-10-19T08:45:45.277Z,90.68
2018-10-19T08:46:45.635Z,90.01
2018-10-19T08:47:46.870Z,90.11
2018-10-19T08:48:46.997Z,89.73
2018-10-19T08:49:48.795Z,90.2
2018-10-19T08:50:50.188Z,90.59
2018-10-19T08:51:50.829Z,92.21
2018-10-19T08:52:50.901Z,93.26
2018-10-19T08:53:52.412Z,92.93
2018-10-19T08:54:53.632Z,92.74
2018-10-19T08:55:54.445Z,92.45
2018-10-19T08:56:55.657Z,92.64
2018-10-19T08:57:57.180Z,93.45
2018-10-19T08:58:58.118Z,92.59
2018-10-19T08:59:59.494Z,91.68
2018-10-19T09:00:59.581Z,90.53
2018-10-19T09:02:00.384Z,87.62
2018-10-19T09:03:02.614Z,87.52
2018-10-19T09:04:03.539Z,88.48
2018-10-19T09:05:04.315Z,88.29
2018-10-19T09:06:05.641Z,87.9
2018-10-19T09:07:06.219Z,88.19
2018-10-19T09:08:07.754Z,88
2018-10-19T09:09:07.114Z,88
2018-10-19T09:10:08.135Z,87.71
2018-10-19T09:11:09.677Z,87.62
2018-10-19T09:12:10.544Z,86.37
2018-10-19T09:13:11.348Z,87.27
2018-10-19T09:14:12.429Z,86.32
2018-10-19T09:15:14.333Z,84.88
2018-10-19T09:16:15.099Z,85.27
2018-10-19T09:17:17.060Z,87.08
2018-10-19T09:18:17.236Z,88.57
2018-10-19T09:19:18.644Z,89.81
2018-10-19T09:20:19.762Z,88.48
2018-10-19T09:21:19.952Z,88.19
2018-10-19T09:22:21.030Z,89.24
2018-10-19T09:23:22.111Z,88.67
2018-10-19T09:24:22.636Z,87.62
2018-10-19T09:25:23.448Z,87.76
2018-10-19T09:26:24.806Z,87.14
2018-10-19T09:27:25.329Z,86.51
2018-10-19T09:28:25.692Z,87.27
2018-10-19T09:29:27.003Z,86.8
2018-10-19T09:30:27.287Z,88.13
2018-10-19T09:31:28.126Z,87.33
2018-10-19T09:32:28.489Z,88.23
2018-10-19T09:33:30.405Z,87.95
2018-10-19T09:34:30.930Z,88.13
2018-10-19T09:35:31.902Z,88.71
2018-10-19T09:36:34.852Z,90.05
2018-10-19T09:37:34.302Z,91.68
2018-10-19T09:38:34.824Z,91.92
2018-10-19T09:39:35.349Z,91.16
2018-10-19T09:40:36.873Z,91.53
2018-10-19T09:41:37.734Z,89.34
2018-10-19T09:42:39.132Z,89.43
2018-10-19T09:43:39.155Z,90.2
2018-10-19T09:44:39.958Z,90.91
2018-10-19T09:45:40.662Z,90.67
2018-10-19T09:46:41.100Z,91.39
2018-10-19T09:47:42.042Z,91.49
2018-10-19T09:48:42.839Z,91.44
2018-10-19T09:49:43.366Z,91.73
2018-10-19T09:50:44.451Z,91.06
2018-10-19T09:51:45.289Z,91.11
2018-10-19T09:52:46.371Z,89.29
2018-10-19T09:53:47.733Z,88.52
2018-10-19T09:54:49.440Z,89.09
2018-10-19T09:55:52.164Z,88.43
2018-10-19T09:56:02.106Z,87.9
2018-10-19T09:57:03.875Z,86.27
2018-10-19T09:58:04.473Z,83.25
2018-10-19T09:59:05.008Z,82.14
2018-10-19T10:00:05.980Z,80.35
2018-10-19T10:01:06.562Z,78.57
2018-10-19T10:02:08.566Z,76.65
2018-10-19T10:03:09.995Z,76.07
2018-10-19T10:04:10.765Z,76.69
2018-10-19T10:05:13.379Z,74.43
2018-10-19T10:06:13.822Z,73.79
2018-10-19T10:07:15.029Z,73.69
2018-10-19T10:08:15.750Z,72.25
2018-10-19T10:09:18.901Z,70.94
2018-10-19T10:10:18.117Z,70.37
2018-10-19T10:11:19.465Z,69.79
2018-10-19T10:12:19.951Z,69.89
2018-10-19T10:13:20.762Z,70.27
2018-10-19T10:14:21.572Z,68.92
2018-10-19T10:15:22.727Z,68.92
2018-10-19T10:16:23.746Z,70.37
2018-10-19T10:17:24.558Z,70.21
2018-10-19T10:18:25.365Z,68.29
2018-10-19T10:19:26.477Z,66.78
2018-10-19T10:20:27.288Z,66.97
2018-10-19T10:21:28.373Z,67.07
2018-10-19T10:22:29.186Z,67.71
2018-10-19T10:23:29.928Z,67.65
2018-10-19T10:24:31.537Z,65.81
2018-10-19T10:25:33.024Z,65.85
2018-10-19T10:26:33.833Z,65.27
2018-10-19T10:27:34.934Z,64.89
2018-10-19T10:28:36.106Z,62.99
2018-10-19T10:29:36.639Z,63.38
2018-10-19T10:30:37.188Z,63.76
2018-10-19T10:31:38.541Z,62.87
2018-10-19T10:32:39.353Z,63.82
2018-10-19T10:33:40.889Z,64.79
2018-10-19T10:34:42.704Z,65.24
2018-10-19T10:35:43.516Z,64.76
2018-10-19T10:36:44.453Z,66.39
2018-10-19T10:37:44.492Z,68.32
2018-10-19T10:38:45.618Z,65.72
2018-10-19T10:39:46.092Z,64.66
2018-10-19T10:40:46.908Z,64.02
2018-10-19T10:41:47.717Z,64.02
2018-10-19T10:42:48.082Z,64.76
2018-10-19T10:43:48.174Z,65.63
2018-10-19T10:44:50.091Z,66.58
2018-10-19T10:45:50.904Z,66.2
2018-10-19T10:46:52.243Z,65.53
2018-10-19T10:47:52.913Z,65.59
2018-10-19T10:48:53.777Z,67.99
2018-10-19T10:49:54.839Z,67.9
2018-10-19T10:50:55.636Z,67.8
2018-10-19T10:51:57.568Z,67.99
2018-10-19T10:52:58.078Z,67.9
2018-10-19T10:53:58.606Z,67.32
2018-10-19T10:55:00.101Z,67.9
2018-10-19T10:56:00.631Z,66.36
2018-10-19T10:57:01.155Z,65.81
2018-10-19T10:58:02.263Z,65.05
2018-10-19T10:59:03.094Z,67.26
2018-10-19T11:00:03.456Z,67.8
2018-10-19T11:01:05.121Z,66.74
2018-10-19T11:02:06.132Z,65.01
2018-10-19T11:03:07.218Z,66.27
2018-10-19T11:04:07.712Z,66.49
2018-10-19T11:05:08.418Z,67.9
2018-10-19T11:06:09.501Z,67.13
2018-10-19T11:07:10.784Z,66.01
2018-10-19T11:08:11.813Z,66.58
2018-10-19T11:09:12.175Z,66.39
2018-10-19T11:10:13.516Z,65.24
2018-10-19T11:11:14.321Z,66.78
2018-10-19T11:12:15.689Z,66.58
2018-10-19T11:13:16.501Z,66.1
2018-10-19T11:14:17.585Z,65.43
2018-10-19T11:15:17.670Z,65.05
2018-10-19T11:16:19.041Z,66.01
2018-10-19T11:17:20.307Z,65.63
2018-10-19T11:18:21.229Z,65.43
2018-10-19T11:19:22.050Z,67.26
2018-10-19T11:20:22.586Z,68.22
2018-10-19T11:21:26.154Z,67.13
2018-10-19T11:21:37.016Z,66.68
2018-10-19T11:22:35.660Z,66.01
2018-10-19T11:23:36.293Z,66.49
2018-10-19T11:24:37.100Z,66.68
2018-10-19T11:25:37.864Z,67.83
2018-10-19T11:26:38.950Z,68.32
2018-10-19T11:27:39.757Z,66.78
2018-10-19T11:28:43.249Z,66.49
2018-10-19T11:28:52.614Z,67.16
2018-10-19T11:29:53.882Z,68.09
2018-10-19T11:30:54.464Z,66.74
2018-10-19T11:31:55.988Z,65.69
2018-10-19T11:32:56.095Z,66.07
2018-10-19T11:33:57.713Z,65.11
2018-10-19T11:34:59.433Z,66.46
2018-10-19T11:35:59.805Z,68.09
2018-10-19T11:36:59.956Z,67.58
2018-10-19T11:38:01.375Z,67.38
2018-10-19T11:39:02.093Z,67.86
2018-10-19T11:40:04.317Z,69.12
2018-10-19T11:41:05.228Z,69.95
2018-10-19T11:42:05.876Z,70.56
2018-10-19T11:43:07.260Z,68.54
2018-10-19T11:44:06.910Z,68.63
2018-10-19T11:45:07.725Z,69.6
2018-10-19T11:46:09.742Z,69.31
2018-10-19T11:47:09.683Z,68.76
2018-10-19T11:48:10.816Z,68.48
2018-10-19T11:49:11.846Z,68.09
2018-10-19T11:50:12.333Z,68.09
2018-10-19T11:51:13.693Z,68.48
2018-10-19T11:52:15.084Z,67.99
2018-10-19T11:53:14.319Z,68.38
2018-10-19T11:54:15.402Z,69.18
2018-10-19T11:55:16.540Z,69.47
2018-10-19T11:56:16.996Z,68.13
2018-10-19T11:57:18.079Z,68.9
2018-10-19T11:58:19.792Z,68.6
2018-10-19T11:59:19.599Z,69.85
2018-10-19T12:00:20.581Z,68.44
2018-10-19T12:01:21.395Z,66.24
2018-10-19T12:02:22.478Z,65.66
2018-10-19T12:03:23.875Z,66.24
2018-10-19T12:04:24.296Z,66.81
2018-10-19T12:05:25.377Z,66.42
2018-10-19T12:06:25.467Z,67.83
2018-10-19T12:07:27.883Z,69.31
2018-10-19T12:08:28.846Z,68.6
2018-10-19T12:09:29.655Z,68.22
2018-10-19T12:10:30.516Z,68.7
2018-10-19T12:11:30.669Z,67.93
2018-10-19T12:12:31.472Z,69.02
2018-10-19T12:13:33.003Z,67.19
2018-10-19T12:14:33.808Z,67.29
2018-10-19T12:15:34.892Z,68.03
2018-10-19T12:16:37.680Z,68.51
2018-10-19T12:17:38.184Z,69.38
2018-10-19T12:18:40.293Z,70.82
2018-10-19T12:19:41.101Z,69.09
2018-10-19T12:20:42.106Z,68.22
2018-10-19T12:21:42.596Z,68.7
2018-10-19T12:22:42.961Z,67
2018-10-19T12:23:43.781Z,67.68
2018-10-19T12:24:44.877Z,66.81
2018-10-19T12:25:46.531Z,67.77
2018-10-19T12:26:46.677Z,67.68
2018-10-19T12:27:47.039Z,66.42
2018-10-19T12:28:47.849Z,66.94
2018-10-19T12:29:48.930Z,66.65
2018-10-19T12:30:50.194Z,68.64
2018-10-19T12:31:52.403Z,69.41
2018-10-19T12:32:52.385Z,66.75
2018-10-19T12:33:05.318Z,66.55
2018-10-19T12:34:04.186Z,66.85
2018-10-19T12:35:04.559Z,65.2
2018-10-19T12:36:05.793Z,65.43
2018-10-19T12:37:06.700Z,65.72
2018-10-19T12:38:09.117Z,65.05
2018-10-19T12:39:11.002Z,63.7
2018-10-19T12:39:21.560Z,63.89
2018-10-19T12:40:25.424Z,64.86
2018-10-19T12:40:36.911Z,65.14
2018-10-19T12:41:39.125Z,64.47
2018-10-19T12:41:50.258Z,65.05
2018-10-19T12:42:02.557Z,64.95
2018-10-19T12:42:14.163Z,64.37
2018-10-19T12:42:26.730Z,63.79
2018-10-19T12:42:38.993Z,63.02
2018-10-19T12:42:50.573Z,63.54
2018-10-19T12:43:02.242Z,63.34
2018-10-19T12:43:14.640Z,63.6
2018-10-19T12:43:26.853Z,63.12
2018-10-19T12:44:25.785Z,63.82
2018-10-19T12:45:26.873Z,64.11
2018-10-19T12:46:27.959Z,63.24
2018-10-19T12:47:29.648Z,62.96
2018-10-19T12:47:40.384Z,63.63
2018-10-19T12:48:41.348Z,64.79
2018-10-19T12:49:41.596Z,64.95
2018-10-19T12:50:42.405Z,63.89
2018-10-19T12:51:44.282Z,64.66